Atlantic Osprey — CFH8950 — position and weather

sailwx.info

Track history (hours):
 
Tides and Currents Weather Stations Pressure Air Temp Water Temp Dewpoint Dewpoint Depression Visibility Wind Speed Wind Dir Waves Ship Positions

Atlantic Osprey

Last reported at 2016-Aug-15 02:31 UTC. Time now 2016-Aug-24 06:49 UTC.
Position N 47°32' W 052°28'.
Warning: this ship's position is 9 days out of date.

Length 3 m; draft 6.6 m.

Type: Tug. MMSI: 316004850.

Date/timePositionNaut miles runAvg speedWind from/ knotsBaromVisibWave heightAir tempDewpointWater temp
2016-Aug-15 02:31N 47°32' W 052°28'9 3.1
2016-Aug-14 23:29N 47°34' W 052°42'0 0.0
2016-Aug-14 22:32N 47°34' W 052°42'0 0.0
2016-Aug-14 21:14N 47°34' W 052°42'0 0.0
2016-Aug-14 19:21N 47°34' W 052°42'0 0.0
2016-Aug-14 16:11N 47°34' W 052°42'0 0.0
2016-Aug-14 15:06N 47°34' W 052°42'0 0.0
2016-Aug-14 10:20N 47°34' W 052°42'7 7.9
2016-Aug-14 09:31N 47°33' W 052°32'  
2016-Aug-08 23:20N 47°32' W 052°26'810.3
2016-Aug-08 22:33N 47°34' W 052°37'3 3.2
2016-Aug-08 21:31N 47°34' W 052°42'0 0.0
2016-Aug-08 20:12N 47°34' W 052°42'0 0.0
2016-Aug-08 17:17N 47°34' W 052°42'0 0.0
2016-Aug-08 16:29N 47°34' W 052°42'0 0.0
2016-Aug-08 15:28N 47°34' W 052°42'0 0.0
2016-Aug-08 14:32N 47°34' W 052°42'0 0.0
2016-Aug-08 13:18N 47°34' W 052°42'0 0.0
2016-Aug-08 12:31N 47°34' W 052°42'0 0.0
2016-Aug-08 11:32N 47°34' W 052°42'0 0.0
2016-Aug-08 10:33N 47°34' W 052°42'0 0.0
2016-Aug-08 09:29N 47°34' W 052°42'0 0.0
2016-Aug-08 04:32N 47°34' W 052°42'0 0.0
2016-Aug-08 03:31N 47°34' W 052°42'0 0.0
2016-Aug-08 02:32N 47°34' W 052°42'0 0.0
2016-Aug-08 01:33N 47°34' W 052°42'0 0.0
2016-Aug-07 22:18N 47°34' W 052°42'0 0.0
2016-Aug-07 21:32N 47°34' W 052°42'0 0.0
2016-Aug-07 20:31N 47°34' W 052°42'0 0.5
2016-Aug-07 19:33N 47°34' W 052°42'0 0.0
2016-Aug-07 18:33N 47°34' W 052°42'0 0.0
2016-Aug-07 17:33N 47°34' W 052°42'0 0.0
2016-Aug-07 16:31N 47°34' W 052°42'  
Track history (hours):
 
Tides and Currents Weather Stations Pressure Air Temp Water Temp Dewpoint Dewpoint Depression Visibility Wind Speed Wind Dir Waves Ship Positions

Atlantic Osprey

Last reported at 2016-Aug-15 02:31 UTC. Time now 2016-Aug-24 06:49 UTC.
Position N 47°32' W 052°28'.
Warning: this ship's position is 9 days out of date.

Length 3 m; draft 6.6 m.

Type: Tug. MMSI: 316004850.

Date/timePositionNaut miles runAvg speedWind from/ knotsBaromVisibWave heightAir tempDewpointWater temp
2016-Aug-15 02:31N 47°32' W 052°28'9 3.1
2016-Aug-14 23:29N 47°34' W 052°42'0 0.0
2016-Aug-14 22:32N 47°34' W 052°42'0 0.0
2016-Aug-14 21:14N 47°34' W 052°42'0 0.0
2016-Aug-14 19:21N 47°34' W 052°42'0 0.0
2016-Aug-14 16:11N 47°34' W 052°42'0 0.0
2016-Aug-14 15:06N 47°34' W 052°42'0 0.0
2016-Aug-14 10:20N 47°34' W 052°42'7 7.9
2016-Aug-14 09:31N 47°33' W 052°32'  
2016-Aug-08 23:20N 47°32' W 052°26'810.3
2016-Aug-08 22:33N 47°34' W 052°37'3 3.2
2016-Aug-08 21:31N 47°34' W 052°42'0 0.0
2016-Aug-08 20:12N 47°34' W 052°42'0 0.0
2016-Aug-08 17:17N 47°34' W 052°42'0 0.0
2016-Aug-08 16:29N 47°34' W 052°42'0 0.0
2016-Aug-08 15:28N 47°34' W 052°42'0 0.0
2016-Aug-08 14:32N 47°34' W 052°42'0 0.0
2016-Aug-08 13:18N 47°34' W 052°42'0 0.0
2016-Aug-08 12:31N 47°34' W 052°42'0 0.0
2016-Aug-08 11:32N 47°34' W 052°42'0 0.0
2016-Aug-08 10:33N 47°34' W 052°42'0 0.0
2016-Aug-08 09:29N 47°34' W 052°42'0 0.0
2016-Aug-08 04:32N 47°34' W 052°42'0 0.0
2016-Aug-08 03:31N 47°34' W 052°42'0 0.0
2016-Aug-08 02:32N 47°34' W 052°42'0 0.0
2016-Aug-08 01:33N 47°34' W 052°42'0 0.0
2016-Aug-07 22:18N 47°34' W 052°42'0 0.0
2016-Aug-07 21:32N 47°34' W 052°42'0 0.0
2016-Aug-07 20:31N 47°34' W 052°42'0 0.5
2016-Aug-07 19:33N 47°34' W 052°42'0 0.0
2016-Aug-07 18:33N 47°34' W 052°42'0 0.0
2016-Aug-07 17:33N 47°34' W 052°42'0 0.0
2016-Aug-07 16:31N 47°34' W 052°42'  

Dump ship's entire track history